createdAt,value
2022-09-15T00:00:58.503Z,39.63
2022-09-15T00:03:25.105Z,39.74
2022-09-15T00:05:53.595Z,39.80
2022-09-15T00:08:20.825Z,39.74
2022-09-15T00:10:56.345Z,39.64
2022-09-15T00:13:23.324Z,39.71
2022-09-15T00:15:50.446Z,39.81
2022-09-15T00:18:17.391Z,39.65
2022-09-15T00:20:45.323Z,39.72
2022-09-15T00:23:13.905Z,39.75
2022-09-15T00:25:45.909Z,39.75
2022-09-15T00:28:14.331Z,39.72
2022-09-15T00:30:50.053Z,39.69
2022-09-15T00:33:17.430Z,39.73
2022-09-15T00:35:45.431Z,39.76
2022-09-15T00:38:13.672Z,39.78
2022-09-15T00:40:59.843Z,39.68
2022-09-15T00:44:04.137Z,39.68
2022-09-15T00:46:30.536Z,39.83
2022-09-15T00:49:03.239Z,39.67
2022-09-15T00:51:39.101Z,39.77
2022-09-15T00:54:10.471Z,39.72
2022-09-15T00:56:41.600Z,39.74
2022-09-15T00:59:12.239Z,39.73
2022-09-15T01:01:40.531Z,39.67
2022-09-15T01:04:07.172Z,39.72
2022-09-15T01:06:37.359Z,39.72
2022-09-15T01:09:23.952Z,39.80
2022-09-15T01:11:50.939Z,39.73
2022-09-15T01:14:17.521Z,39.74
2022-09-15T01:16:47.087Z,39.76
2022-09-15T01:19:51.539Z,39.67
2022-09-15T01:22:21.115Z,39.82
2022-09-15T01:25:12.198Z,39.70
2022-09-15T01:27:56.261Z,39.60
2022-09-15T01:30:24.372Z,39.82
2022-09-15T01:33:12.575Z,39.73
2022-09-15T01:35:51.713Z,39.71
2022-09-15T01:38:34.949Z,39.90
2022-09-15T01:41:13.565Z,39.69
2022-09-15T01:43:49.698Z,39.68
2022-09-15T01:46:19.597Z,39.79
2022-09-15T01:48:49.420Z,39.60
2022-09-15T01:51:16.808Z,39.71
2022-09-15T01:53:44.928Z,39.79
2022-09-15T01:56:12.567Z,39.76
2022-09-15T01:58:40.751Z,39.80
2022-09-15T02:01:18.933Z,39.72
2022-09-15T02:03:51.604Z,39.70
2022-09-15T02:06:35.682Z,39.75
2022-09-15T02:09:13.895Z,39.64
2022-09-15T02:12:19.632Z,39.82
2022-09-15T02:15:10.459Z,39.83
2022-09-15T02:17:45.589Z,39.81
2022-09-15T02:20:39.116Z,39.81
2022-09-15T02:23:13.827Z,39.62
2022-09-15T02:25:51.642Z,39.81
2022-09-15T02:28:23.911Z,39.75
2022-09-15T02:30:54.243Z,39.83
2022-09-15T02:33:24.238Z,39.69
2022-09-15T02:35:52.211Z,39.76
2022-09-15T02:38:18.701Z,39.92
2022-09-15T02:40:45.261Z,39.91
2022-09-15T02:43:14.765Z,39.65
2022-09-15T02:45:41.720Z,39.74
2022-09-15T02:48:11.728Z,39.75
2022-09-15T02:50:38.933Z,39.79
2022-09-15T02:53:05.746Z,39.84
2022-09-15T02:55:32.377Z,39.74
2022-09-15T02:57:59.674Z,39.63
2022-09-15T03:00:28.353Z,39.92
2022-09-15T03:02:56.113Z,39.91
2022-09-15T03:05:26.007Z,39.86
2022-09-15T03:07:53.564Z,39.93
2022-09-15T03:10:21.175Z,39.79
2022-09-15T03:12:50.106Z,39.96
2022-09-15T03:15:19.284Z,39.72
2022-09-15T03:17:47.268Z,39.88
2022-09-15T03:20:20.141Z,39.72
2022-09-15T03:22:47.595Z,39.88
2022-09-15T03:25:14.336Z,39.92
2022-09-15T03:27:40.828Z,39.96
2022-09-15T03:30:08.678Z,39.95
2022-09-15T03:32:35.358Z,39.90
2022-09-15T03:35:02.251Z,39.95
2022-09-15T03:37:28.763Z,39.98
2022-09-15T03:39:56.116Z,39.85
2022-09-15T03:42:22.753Z,39.99
2022-09-15T03:44:49.202Z,39.97
2022-09-15T03:47:15.773Z,39.91
2022-09-15T03:49:42.346Z,39.97
2022-09-15T03:52:08.823Z,39.92
2022-09-15T03:54:35.644Z,39.76
2022-09-15T03:57:03.493Z,39.85
2022-09-15T03:59:30.136Z,39.97
2022-09-15T04:01:56.661Z,39.92
2022-09-15T04:04:23.220Z,39.86
2022-09-15T04:06:49.665Z,39.98
2022-09-15T04:09:16.210Z,39.94
2022-09-15T04:11:42.816Z,39.97
2022-09-15T04:14:09.375Z,39.90
2022-09-15T04:16:35.933Z,39.95
2022-09-15T04:19:02.430Z,39.90
2022-09-15T04:21:30.104Z,39.91
2022-09-15T04:23:56.610Z,40.20
2022-09-15T04:26:23.020Z,39.92
2022-09-15T04:28:49.548Z,39.95
2022-09-15T04:31:17.597Z,39.97
2022-09-15T04:33:45.332Z,39.92
2022-09-15T04:36:24.212Z,40.06
2022-09-15T04:38:51.769Z,39.95
2022-09-15T04:41:19.080Z,40.08
2022-09-15T04:43:45.964Z,40.04
2022-09-15T04:46:14.066Z,39.73
2022-09-15T04:48:41.123Z,40.11
2022-09-15T04:51:11.732Z,39.95
2022-09-15T04:53:38.300Z,39.91
2022-09-15T04:56:09.158Z,40.10
2022-09-15T04:58:41.182Z,40.09
2022-09-15T05:01:16.483Z,39.92
2022-09-15T05:03:44.151Z,40.02
2022-09-15T05:06:13.320Z,39.99
2022-09-15T05:08:40.007Z,40.17
2022-09-15T05:11:12.156Z,39.99
2022-09-15T05:13:40.057Z,40.03
2022-09-15T05:16:13.224Z,39.92
2022-09-15T05:18:41.335Z,39.90
2022-09-15T05:21:10.034Z,40.05
2022-09-15T05:23:37.344Z,40.11
2022-09-15T05:26:06.714Z,39.97
2022-09-15T05:28:35.766Z,40.12
2022-09-15T05:31:07.013Z,40.22
2022-09-15T05:33:34.807Z,40.03
2022-09-15T05:36:01.518Z,39.93
2022-09-15T05:38:32.338Z,40.17
2022-09-15T05:41:10.297Z,39.94
2022-09-15T05:43:37.975Z,40.04
2022-09-15T05:46:05.476Z,40.14
2022-09-15T05:48:32.000Z,40.26
2022-09-15T05:50:58.556Z,39.98
2022-09-15T05:53:26.266Z,40.02
2022-09-15T05:56:00.183Z,40.17
2022-09-15T05:58:27.563Z,40.12
2022-09-15T06:00:54.705Z,39.92
2022-09-15T06:03:23.281Z,40.22
2022-09-15T06:05:59.460Z,40.19
2022-09-15T06:08:29.833Z,40.26
2022-09-15T06:11:01.646Z,40.26
2022-09-15T06:13:28.082Z,40.18
2022-09-15T06:15:54.680Z,40.22
2022-09-15T06:18:21.202Z,40.31
2022-09-15T06:20:47.889Z,40.21
2022-09-15T06:23:14.324Z,39.97
2022-09-15T06:25:40.890Z,40.18
2022-09-15T06:28:07.323Z,40.36
2022-09-15T06:30:33.796Z,40.37
2022-09-15T06:33:00.265Z,40.34
2022-09-15T06:35:26.705Z,40.21
2022-09-15T06:37:53.243Z,40.15
2022-09-15T06:40:19.782Z,40.25
2022-09-15T06:42:46.348Z,40.17
2022-09-15T06:45:12.928Z,40.32
2022-09-15T06:47:39.388Z,40.10
2022-09-15T06:50:06.897Z,40.38
2022-09-15T06:52:33.672Z,40.27
2022-09-15T06:55:00.375Z,40.28
2022-09-15T06:57:26.914Z,40.28
2022-09-15T06:59:53.703Z,40.06
2022-09-15T07:02:20.209Z,40.18
2022-09-15T07:04:46.732Z,40.27
2022-09-15T07:07:13.171Z,40.20
2022-09-15T07:09:41.335Z,40.32
2022-09-15T07:12:08.203Z,40.30
2022-09-15T07:14:34.632Z,40.15
2022-09-15T07:17:01.162Z,40.34
2022-09-15T07:19:27.671Z,40.33
2022-09-15T07:21:54.151Z,40.40
2022-09-15T07:24:20.677Z,40.11
2022-09-15T07:26:47.154Z,40.40
2022-09-15T07:29:13.842Z,40.38
2022-09-15T07:31:40.655Z,40.32
2022-09-15T07:34:08.035Z,40.35
2022-09-15T07:36:34.756Z,40.43
2022-09-15T07:39:03.629Z,40.20
2022-09-15T07:41:31.628Z,40.24
2022-09-15T07:44:00.375Z,40.38
2022-09-15T07:46:30.101Z,40.41
2022-09-15T07:48:56.707Z,40.21
2022-09-15T07:51:23.923Z,40.38
2022-09-15T07:53:51.429Z,40.38
2022-09-15T07:56:18.486Z,40.41
2022-09-15T07:58:46.080Z,40.37
2022-09-15T08:01:14.846Z,40.21
2022-09-15T08:03:52.083Z,40.39
2022-09-15T08:06:23.008Z,40.36
2022-09-15T08:08:52.284Z,40.44
2022-09-15T08:11:21.087Z,40.23
2022-09-15T08:13:49.723Z,40.42
2022-09-15T08:16:19.457Z,40.44
2022-09-15T08:18:46.758Z,40.43
2022-09-15T08:21:16.323Z,40.61
2022-09-15T08:23:43.289Z,40.54
2022-09-15T08:26:14.279Z,40.45
2022-09-15T08:28:41.628Z,40.57
2022-09-15T08:31:11.461Z,40.38
2022-09-15T08:33:41.966Z,40.32
2022-09-15T08:36:12.060Z,40.60
2022-09-15T08:38:40.627Z,40.53
2022-09-15T08:41:30.990Z,40.41
2022-09-15T08:43:57.293Z,40.64
2022-09-15T08:46:29.268Z,40.37
2022-09-15T08:49:50.059Z,40.37
2022-09-15T08:52:23.255Z,40.58
2022-09-15T08:54:53.209Z,40.69
2022-09-15T08:57:23.493Z,40.53
2022-09-15T08:59:49.889Z,40.56
2022-09-15T09:02:33.580Z,40.69
2022-09-15T09:05:29.302Z,40.63
2022-09-15T09:08:18.661Z,40.29
2022-09-15T09:11:14.826Z,40.49
2022-09-15T09:13:59.095Z,40.47
2022-09-15T09:16:30.678Z,40.58
2022-09-15T09:18:57.051Z,40.53
2022-09-15T09:21:35.271Z,40.60
2022-09-15T09:24:13.327Z,40.62
2022-09-15T09:26:40.238Z,40.55
2022-09-15T09:29:16.384Z,40.56
2022-09-15T09:31:45.904Z,40.40
2022-09-15T09:34:27.596Z,40.46
2022-09-15T09:36:59.035Z,40.31
2022-09-15T09:39:27.759Z,40.62
2022-09-15T09:41:55.160Z,40.45
2022-09-15T09:44:31.639Z,40.83
2022-09-15T09:46:59.690Z,40.59
2022-09-15T09:49:39.949Z,40.66
2022-09-15T09:52:06.348Z,40.40
2022-09-15T09:54:34.166Z,40.53
2022-09-15T09:57:13.011Z,40.28
2022-09-15T09:59:45.278Z,40.23
2022-09-15T10:02:11.659Z,40.42
2022-09-15T10:04:40.298Z,40.37
2022-09-15T10:07:07.638Z,40.51
2022-09-15T10:09:34.482Z,40.41
2022-09-15T10:12:03.793Z,40.55
2022-09-15T10:14:32.035Z,40.35
2022-09-15T10:17:17.156Z,40.43
2022-09-15T10:19:54.124Z,40.31
2022-09-15T10:22:25.542Z,40.27
2022-09-15T10:24:52.021Z,40.22
2022-09-15T10:27:18.518Z,39.98
2022-09-15T10:29:45.345Z,40.31
2022-09-15T10:32:29.906Z,40.29
2022-09-15T10:35:18.147Z,40.29
2022-09-15T10:38:12.082Z,40.12
2022-09-15T10:40:51.073Z,40.17
2022-09-15T10:43:44.932Z,40.30
2022-09-15T10:46:25.839Z,40.25
2022-09-15T10:49:12.554Z,40.09
2022-09-15T10:52:13.686Z,40.41
2022-09-15T10:54:48.608Z,40.28
2022-09-15T10:57:38.276Z,40.28
2022-09-15T11:00:25.696Z,40.15
2022-09-15T11:02:55.333Z,40.14
2022-09-15T11:05:33.593Z,40.21
2022-09-15T11:08:19.119Z,40.31
2022-09-15T11:10:51.805Z,39.85
2022-09-15T11:13:27.586Z,40.25
2022-09-15T11:16:12.444Z,40.12
2022-09-15T11:19:00.949Z,39.91
2022-09-15T11:21:47.512Z,39.99
2022-09-15T11:25:02.054Z,40.08
2022-09-15T11:27:36.143Z,40.18
2022-09-15T11:30:20.713Z,40.24
2022-09-15T11:32:57.995Z,40.21
2022-09-15T11:35:31.204Z,40.00
2022-09-15T11:38:18.172Z,40.06
2022-09-15T11:41:22.409Z,39.97
2022-09-15T11:44:16.653Z,40.11
2022-09-15T11:47:01.610Z,40.17
2022-09-15T11:49:45.414Z,39.98
2022-09-15T11:52:33.473Z,40.00
2022-09-15T11:55:22.581Z,40.08
2022-09-15T11:57:52.780Z,40.10
2022-09-15T12:00:20.436Z,39.98
2022-09-15T12:03:13.433Z,40.02
2022-09-15T12:05:48.571Z,39.98
2022-09-15T12:08:24.229Z,39.79
2022-09-15T12:10:54.552Z,40.01
2022-09-15T12:13:22.563Z,40.00
2022-09-15T12:15:50.531Z,40.04
2022-09-15T12:18:38.434Z,39.89
2022-09-15T12:21:13.253Z,39.97
2022-09-15T12:23:59.928Z,39.80
2022-09-15T12:26:27.638Z,39.78
2022-09-15T12:28:57.473Z,39.93
2022-09-15T12:31:34.473Z,39.85
2022-09-15T12:34:30.345Z,39.85
2022-09-15T12:37:18.176Z,39.85
2022-09-15T12:39:47.123Z,39.75
2022-09-15T12:42:15.960Z,39.75
2022-09-15T12:44:42.360Z,39.67
2022-09-15T12:47:23.474Z,39.82
2022-09-15T12:49:52.805Z,39.85
2022-09-15T12:52:21.594Z,39.52
2022-09-15T12:54:57.704Z,39.75
2022-09-15T12:57:34.132Z,39.73
2022-09-15T13:00:27.583Z,39.64
2022-09-15T13:02:55.599Z,39.69
2022-09-15T13:05:51.078Z,39.79
2022-09-15T13:08:29.439Z,39.50
2022-09-15T13:11:02.649Z,39.57
2022-09-15T13:13:38.421Z,39.57
2022-09-15T13:16:12.193Z,39.47
2022-09-15T13:18:42.074Z,39.55
2022-09-15T13:21:14.362Z,39.72
2022-09-15T13:23:44.833Z,39.60
2022-09-15T13:26:17.899Z,39.61
2022-09-15T13:28:47.185Z,39.46
2022-09-15T13:31:26.724Z,39.42
2022-09-15T13:40:48.016Z,39.56
2022-09-15T13:43:32.219Z,39.37
2022-09-15T13:46:13.793Z,39.61
2022-09-15T13:49:28.304Z,39.37
2022-09-15T13:52:15.926Z,39.45
2022-09-15T13:55:24.153Z,39.35
2022-09-15T14:00:56.043Z,39.44
2022-09-15T14:03:44.697Z,39.45
2022-09-15T14:06:36.760Z,39.44
2022-09-15T14:09:09.335Z,39.39
2022-09-15T14:11:37.714Z,39.62
2022-09-15T14:14:09.752Z,39.37
2022-09-15T14:16:37.834Z,39.41
2022-09-15T14:19:21.621Z,39.53
2022-09-15T14:21:53.797Z,39.46
2022-09-15T14:24:27.921Z,39.56
2022-09-15T14:26:54.960Z,39.20
2022-09-15T14:29:24.940Z,39.44
2022-09-15T14:31:52.878Z,39.32
2022-09-15T14:34:26.105Z,39.20
2022-09-15T14:37:04.361Z,39.39
2022-09-15T14:39:31.302Z,39.38
2022-09-15T14:47:28.352Z,39.25
2022-09-15T14:50:20.893Z,39.16
2022-09-15T14:52:51.888Z,39.48
2022-09-15T14:55:28.161Z,39.32
2022-09-15T14:57:59.002Z,39.44
2022-09-15T15:00:29.992Z,39.05
2022-09-15T15:03:29.878Z,39.47
2022-09-15T15:06:02.555Z,39.33
2022-09-15T15:08:45.463Z,39.28
2022-09-15T15:11:15.056Z,39.48
2022-09-15T15:13:44.016Z,39.26
2022-09-15T15:16:25.079Z,39.17
2022-09-15T15:18:53.238Z,39.16
2022-09-15T15:21:48.173Z,39.31
2022-09-15T15:24:14.890Z,39.24
2022-09-15T15:26:43.023Z,39.16
2022-09-15T15:29:40.559Z,39.21
2022-09-15T15:32:13.126Z,39.23
2022-09-15T15:34:40.098Z,39.23
2022-09-15T15:37:25.664Z,39.14
2022-09-15T15:39:53.141Z,39.05
2022-09-15T15:42:20.716Z,39.09
2022-09-15T15:45:21.783Z,39.32
2022-09-15T15:47:48.828Z,39.34
2022-09-15T15:50:21.196Z,39.13
2022-09-15T15:52:51.555Z,39.24
2022-09-15T15:55:24.439Z,39.24
2022-09-15T15:57:55.507Z,39.10
2022-09-15T16:00:31.954Z,39.20
2022-09-15T16:02:58.470Z,39.14
2022-09-15T16:05:27.646Z,39.18
2022-09-15T16:07:56.647Z,39.20
2022-09-15T16:10:28.126Z,39.10
2022-09-15T16:12:54.581Z,39.06
2022-09-15T16:15:21.462Z,39.15
2022-09-15T16:17:48.729Z,39.03
2022-09-15T16:20:16.321Z,39.34
2022-09-15T16:22:43.721Z,39.14
2022-09-15T16:25:22.744Z,39.05
2022-09-15T16:27:49.813Z,39.14
2022-09-15T16:30:16.276Z,39.27
2022-09-15T16:32:42.878Z,39.04
2022-09-15T16:35:26.447Z,39.13
2022-09-15T16:37:52.958Z,39.34
2022-09-15T16:40:19.564Z,39.11
2022-09-15T16:42:48.009Z,39.09
2022-09-15T16:45:25.040Z,38.95
2022-09-15T16:47:51.571Z,39.11
2022-09-15T16:50:18.170Z,39.14
2022-09-15T16:52:44.776Z,39.16
2022-09-15T16:55:33.275Z,38.99
2022-09-15T16:58:00.081Z,39.05
2022-09-15T17:00:31.878Z,39.17
2022-09-15T17:02:59.592Z,38.98
2022-09-15T17:05:37.796Z,39.14
2022-09-15T17:08:05.969Z,39.02
2022-09-15T17:10:33.467Z,38.96
2022-09-15T17:13:00.827Z,39.06
2022-09-15T17:15:34.171Z,39.07
2022-09-15T17:18:01.942Z,39.00
2022-09-15T17:20:28.656Z,39.15
2022-09-15T17:22:55.454Z,39.04
2022-09-15T17:25:35.715Z,39.10
2022-09-15T17:28:02.753Z,39.13
2022-09-15T17:30:31.460Z,38.85
2022-09-15T17:33:12.105Z,39.09
2022-09-15T17:35:38.902Z,39.17
2022-09-15T17:38:06.450Z,39.04
2022-09-15T17:40:34.842Z,39.02
2022-09-15T17:43:01.976Z,39.15
2022-09-15T17:45:33.010Z,38.94
2022-09-15T17:47:59.860Z,39.01
2022-09-15T17:50:29.771Z,39.06
2022-09-15T17:52:57.033Z,39.08
2022-09-15T17:55:33.854Z,38.96
2022-09-15T17:58:01.934Z,38.82
2022-09-15T18:00:33.222Z,39.02
2022-09-15T18:03:03.679Z,38.90
2022-09-15T18:05:33.326Z,38.84
2022-09-15T18:08:03.136Z,38.90
2022-09-15T18:10:32.210Z,38.93
2022-09-15T18:12:59.434Z,38.86
2022-09-15T18:15:29.201Z,38.86
2022-09-15T18:17:58.561Z,38.92
2022-09-15T18:20:27.939Z,38.93
2022-09-15T18:22:55.346Z,38.64
2022-09-15T18:25:25.488Z,38.98
2022-09-15T18:27:52.267Z,38.81
2022-09-15T18:30:19.691Z,38.74
2022-09-15T18:32:46.414Z,39.03
2022-09-15T18:35:18.403Z,38.91
2022-09-15T18:37:50.020Z,38.92
2022-09-15T18:40:18.457Z,38.79
2022-09-15T18:42:46.170Z,38.86
2022-09-15T18:45:15.691Z,38.71
2022-09-15T18:47:42.858Z,39.04
2022-09-15T18:50:11.870Z,38.82
2022-09-15T18:52:39.947Z,38.62
2022-09-15T18:55:09.158Z,38.79
2022-09-15T18:57:37.230Z,38.87
2022-09-15T19:00:10.549Z,38.82
2022-09-15T19:02:37.238Z,38.98
2022-09-15T19:05:04.327Z,38.74
2022-09-15T19:07:30.865Z,38.85
2022-09-15T19:09:57.969Z,38.71
2022-09-15T19:12:24.899Z,38.89
2022-09-15T19:14:51.389Z,38.90
2022-09-15T19:17:18.108Z,38.76
2022-09-15T19:19:46.345Z,38.91
2022-09-15T19:22:13.178Z,38.73
2022-09-15T19:24:39.628Z,38.94
2022-09-15T19:27:07.803Z,38.74
2022-09-15T19:29:36.484Z,38.77
2022-09-15T19:32:05.280Z,38.77
2022-09-15T19:34:32.270Z,38.74
2022-09-15T19:36:58.779Z,38.74
2022-09-15T19:39:25.410Z,38.94
2022-09-15T19:41:52.246Z,38.81
2022-09-15T19:44:18.870Z,38.79
2022-09-15T19:46:45.808Z,38.80
2022-09-15T19:49:12.929Z,38.85
2022-09-15T19:51:39.540Z,38.60
2022-09-15T19:54:06.999Z,38.94
2022-09-15T19:56:35.053Z,38.90
2022-09-15T19:59:04.075Z,38.95
2022-09-15T20:01:32.680Z,38.88
2022-09-15T20:04:01.904Z,38.73
2022-09-15T20:06:32.537Z,38.96
2022-09-15T20:08:59.475Z,38.69
2022-09-15T20:11:27.585Z,38.77
2022-09-15T20:13:55.040Z,38.85
2022-09-15T20:16:23.050Z,38.69
2022-09-15T20:18:51.741Z,38.96
2022-09-15T20:21:46.253Z,38.63
2022-09-15T20:24:13.793Z,38.76
2022-09-15T20:26:40.693Z,38.82
2022-09-15T20:29:07.682Z,38.92
2022-09-15T20:31:34.548Z,38.78
2022-09-15T20:34:02.277Z,38.82
2022-09-15T20:36:36.019Z,38.78
2022-09-15T20:39:05.211Z,38.80
2022-09-15T20:41:34.370Z,38.88
2022-09-15T20:44:01.196Z,38.72
2022-09-15T20:46:31.426Z,38.79
2022-09-15T20:48:57.821Z,39.03
2022-09-15T20:51:26.776Z,38.79
2022-09-15T20:53:55.194Z,38.69
2022-09-15T20:56:25.561Z,38.93
2022-09-15T20:58:54.071Z,39.08
2022-09-15T21:01:24.187Z,39.08
2022-09-15T21:03:50.848Z,38.82
2022-09-15T21:06:20.657Z,38.82
2022-09-15T21:08:48.543Z,38.96
2022-09-15T21:11:16.965Z,38.99
2022-09-15T21:13:44.326Z,39.04
2022-09-15T21:16:16.486Z,38.77
2022-09-15T21:18:44.970Z,39.05
2022-09-15T21:21:13.342Z,38.93
2022-09-15T21:23:42.614Z,38.93
2022-09-15T21:26:20.899Z,38.93
2022-09-15T21:28:47.841Z,38.90
2022-09-15T21:31:16.965Z,39.07
2022-09-15T21:33:45.196Z,38.93
2022-09-15T21:36:17.406Z,38.90
2022-09-15T21:38:44.839Z,38.80
2022-09-15T21:41:13.873Z,38.83
2022-09-15T21:43:42.160Z,39.02
2022-09-15T21:46:13.170Z,38.87
2022-09-15T21:48:40.658Z,39.13
2022-09-15T21:51:08.476Z,39.00
2022-09-15T21:53:35.039Z,38.76
2022-09-15T21:56:03.868Z,38.96
2022-09-15T21:58:38.937Z,39.07
2022-09-15T22:01:11.821Z,39.04
2022-09-15T22:03:42.057Z,39.11
2022-09-15T22:06:09.504Z,38.96
2022-09-15T22:08:36.180Z,39.15
2022-09-15T22:11:03.063Z,38.91
2022-09-15T22:13:29.638Z,38.98
2022-09-15T22:16:04.621Z,39.28
2022-09-15T22:18:31.521Z,39.00
2022-09-15T22:21:11.192Z,38.96
2022-09-15T22:23:38.308Z,39.10
2022-09-15T22:26:07.758Z,39.17
2022-09-15T22:28:34.294Z,39.20
2022-09-15T22:31:02.761Z,39.24
2022-09-15T22:33:29.723Z,39.11
2022-09-15T22:35:57.169Z,38.89
2022-09-15T22:38:26.713Z,38.89
2022-09-15T22:40:53.260Z,39.12
2022-09-15T22:43:20.106Z,38.99
2022-09-15T22:45:46.592Z,39.02
2022-09-15T22:48:13.117Z,38.98
2022-09-15T22:50:39.675Z,38.95
2022-09-15T22:53:06.170Z,39.00
2022-09-15T22:55:32.906Z,39.11
2022-09-15T22:57:59.339Z,39.18
2022-09-15T23:00:26.199Z,38.93
2022-09-15T23:02:52.692Z,39.07
2022-09-15T23:05:19.213Z,38.87
2022-09-15T23:07:45.662Z,39.03
2022-09-15T23:10:12.168Z,39.30
2022-09-15T23:12:38.845Z,39.29
2022-09-15T23:15:06.599Z,39.16
2022-09-15T23:17:34.565Z,38.81
2022-09-15T23:20:01.740Z,39.01
2022-09-15T23:22:28.244Z,39.06
2022-09-15T23:24:54.879Z,39.18
2022-09-15T23:27:21.318Z,38.84
2022-09-15T23:29:55.408Z,39.01
2022-09-15T23:32:21.936Z,39.22
2022-09-15T23:34:49.142Z,39.19
2022-09-15T23:37:15.764Z,39.04
2022-09-15T23:39:42.566Z,38.98
2022-09-15T23:42:09.039Z,38.85
2022-09-15T23:44:35.479Z,39.05
2022-09-15T23:47:02.101Z,38.90
2022-09-15T23:49:28.732Z,39.12
2022-09-15T23:51:55.192Z,39.16
2022-09-15T23:54:21.652Z,38.91
2022-09-15T23:56:48.154Z,38.86
2022-09-15T23:59:14.697Z,39.11
